createdAt,value
2018-04-16T00:01:41.796Z,13.25
2018-04-16T00:04:07.727Z,13.28
2018-04-16T00:06:33.637Z,13.33
2018-04-16T00:08:59.608Z,13.34
2018-04-16T00:11:25.877Z,13.45
2018-04-16T00:13:51.772Z,13.47
2018-04-16T00:16:17.740Z,13.45
2018-04-16T00:18:43.612Z,13.39
2018-04-16T00:21:09.472Z,13.42
2018-04-16T00:23:35.479Z,13.41
2018-04-16T00:26:01.433Z,13.33
2018-04-16T00:28:27.467Z,13.30
2018-04-16T00:30:53.407Z,13.25
2018-04-16T00:33:25.371Z,13.22
2018-04-16T00:35:57.570Z,13.23
2018-04-16T00:38:29.450Z,13.18
2018-04-16T00:41:01.720Z,13.15
2018-04-16T00:43:33.743Z,13.09
2018-04-16T00:46:05.860Z,13.09
2018-04-16T00:48:37.900Z,13.18
2018-04-16T00:51:10.128Z,13.27
2018-04-16T00:53:54.590Z,13.38
2018-04-16T00:56:26.898Z,13.25
2018-04-16T00:58:58.791Z,13.23
2018-04-16T01:01:30.920Z,13.19
2018-04-16T01:04:02.874Z,13.17
2018-04-16T01:06:34.980Z,13.13
2018-04-16T01:09:06.815Z,13.11
2018-04-16T01:11:38.943Z,13.10
2018-04-16T01:14:10.887Z,13.09
2018-04-16T01:16:42.960Z,13.08
2018-04-16T01:19:15.009Z,13.11
2018-04-16T01:21:47.016Z,13.08
2018-04-16T01:24:18.989Z,13.09
2018-04-16T01:26:52.115Z,13.22
2018-04-16T01:29:24.139Z,13.21
2018-04-16T01:31:56.162Z,13.17
2018-04-16T01:34:28.100Z,13.20
2018-04-16T01:37:00.311Z,13.13
2018-04-16T01:39:32.335Z,13.14
2018-04-16T01:42:04.529Z,13.19
2018-04-16T01:44:36.564Z,13.14
2018-04-16T01:47:08.644Z,13.08
2018-04-16T01:49:40.659Z,13.26
2018-04-16T01:52:12.660Z,13.20
2018-04-16T01:54:45.617Z,13.17
2018-04-16T01:57:17.747Z,13.16
2018-04-16T01:59:49.888Z,13.12
2018-04-16T02:02:22.019Z,13.17
2018-04-16T02:04:54.001Z,13.13
2018-04-16T02:07:26.240Z,13.11
2018-04-16T02:09:58.076Z,13.06
2018-04-16T02:12:31.233Z,13.09
2018-04-16T02:15:03.180Z,13.07
2018-04-16T02:17:35.373Z,13.20
2018-04-16T02:20:07.419Z,13.24
2018-04-16T02:22:39.444Z,13.22
2018-04-16T02:25:11.443Z,13.18
2018-04-16T02:27:43.604Z,13.19
2018-04-16T02:30:15.591Z,13.11
2018-04-16T02:32:47.742Z,13.07
2018-04-16T02:35:20.793Z,13.06
2018-04-16T02:37:53.008Z,13.01
2018-04-16T02:40:24.901Z,12.95
2018-04-16T02:42:56.849Z,12.95
2018-04-16T02:45:28.829Z,12.96
2018-04-16T02:48:01.049Z,12.96
2018-04-16T02:50:33.904Z,12.94
2018-04-16T02:53:06.031Z,12.93
2018-04-16T02:55:38.184Z,12.91
2018-04-16T02:58:10.301Z,12.90
2018-04-16T03:00:42.545Z,12.86
2018-04-16T03:03:14.593Z,12.87
2018-04-16T03:05:46.544Z,12.91
2018-04-16T03:08:20.702Z,12.87
2018-04-16T03:10:52.946Z,12.85
2018-04-16T03:13:25.100Z,12.79
2018-04-16T03:15:57.103Z,12.74
2018-04-16T03:18:29.297Z,12.72
2018-04-16T03:21:01.292Z,12.73
2018-04-16T03:23:33.281Z,12.69
2018-04-16T03:26:05.300Z,12.69
2018-04-16T03:28:37.461Z,12.67
2018-04-16T03:31:09.402Z,12.66
2018-04-16T03:33:41.577Z,12.64
2018-04-16T03:36:13.644Z,12.70
2018-04-16T03:38:45.793Z,12.67
2018-04-16T03:41:17.930Z,12.73
2018-04-16T03:43:50.075Z,12.76
2018-04-16T03:49:32.265Z,12.67
2018-04-16T03:52:13.094Z,12.66
2018-04-16T03:54:39.112Z,12.68
2018-04-16T03:57:05.009Z,12.76
2018-04-16T03:59:30.959Z,12.71
2018-04-16T04:01:56.889Z,12.57
2018-04-16T04:04:22.866Z,12.61
2018-04-16T04:06:48.803Z,12.58
2018-04-16T04:09:14.724Z,12.50
2018-04-16T04:11:40.678Z,12.54
2018-04-16T04:14:06.553Z,12.46
2018-04-16T04:16:32.484Z,12.54
2018-04-16T04:18:58.424Z,12.52
2018-04-16T04:21:24.308Z,12.44
2018-04-16T04:24:03.407Z,12.39
2018-04-16T04:26:41.715Z,12.35
2018-04-16T04:29:20.119Z,12.30
2018-04-16T04:31:46.021Z,12.30
2018-04-16T04:34:11.984Z,12.30
2018-04-16T04:36:37.892Z,12.20
2018-04-16T04:39:03.755Z,12.21
2018-04-16T04:41:29.680Z,12.30
2018-04-16T04:43:56.420Z,12.29
2018-04-16T04:46:22.360Z,12.29
2018-04-16T04:48:48.226Z,12.29
2018-04-16T04:51:14.143Z,12.25
2018-04-16T04:53:40.064Z,12.27
2018-04-16T04:56:05.958Z,12.35
2018-04-16T04:58:31.985Z,12.26
2018-04-16T05:00:57.853Z,12.18
2018-04-16T05:03:23.724Z,12.15
2018-04-16T05:05:49.756Z,12.01
2018-04-16T05:08:15.743Z,12.05
2018-04-16T05:10:41.691Z,12.01
2018-04-16T05:13:07.695Z,11.95
2018-04-16T05:15:33.985Z,11.84
2018-04-16T05:17:59.852Z,11.87
2018-04-16T05:20:25.803Z,11.83
2018-04-16T05:22:51.680Z,11.77
2018-04-16T05:25:17.552Z,11.83
2018-04-16T05:27:43.512Z,11.74
2018-04-16T05:30:09.442Z,11.74
2018-04-16T05:32:35.377Z,11.62
2018-04-16T05:35:01.288Z,11.70
2018-04-16T05:37:27.174Z,11.65
2018-04-16T05:39:53.048Z,11.63
2018-04-16T05:42:18.984Z,11.49
2018-04-16T05:44:44.844Z,11.48
2018-04-16T05:47:10.713Z,11.53
2018-04-16T05:49:36.632Z,11.59
2018-04-16T05:52:02.539Z,11.53
2018-04-16T05:54:28.443Z,11.59
2018-04-16T05:56:54.374Z,11.59
2018-04-16T05:59:20.251Z,11.56
2018-04-16T06:01:46.122Z,11.53
2018-04-16T06:04:12.044Z,11.49
2018-04-16T06:06:37.962Z,11.45
2018-04-16T06:09:04.839Z,11.48
2018-04-16T06:11:30.852Z,11.44
2018-04-16T06:13:56.741Z,11.37
2018-04-16T06:16:22.651Z,11.43
2018-04-16T06:18:48.571Z,11.50
2018-04-16T06:21:14.424Z,11.41
2018-04-16T06:23:40.372Z,11.37
2018-04-16T06:26:06.295Z,11.45
2018-04-16T06:28:32.995Z,11.44
2018-04-16T06:30:58.863Z,11.49
2018-04-16T06:33:24.801Z,11.52
2018-04-16T06:35:50.716Z,11.46
2018-04-16T06:38:16.698Z,11.38
2018-04-16T06:40:42.903Z,11.48
2018-04-16T06:43:08.779Z,11.38
2018-04-16T06:45:34.676Z,11.43
2018-04-16T06:48:00.588Z,11.35
2018-04-16T06:50:26.451Z,11.45
2018-04-16T06:52:52.303Z,11.37
2018-04-16T06:55:18.217Z,11.35
2018-04-16T06:57:44.134Z,11.33
2018-04-16T07:00:10.057Z,11.33
2018-04-16T07:02:35.955Z,11.37
2018-04-16T07:05:01.872Z,11.44
2018-04-16T07:07:27.891Z,11.43
2018-04-16T07:09:53.867Z,11.36
2018-04-16T07:12:19.940Z,11.29
2018-04-16T07:14:45.795Z,11.28
2018-04-16T07:17:11.709Z,11.32
2018-04-16T07:19:37.807Z,11.18
2018-04-16T07:22:03.686Z,11.26
2018-04-16T07:24:29.707Z,11.27
2018-04-16T07:26:55.616Z,11.20
2018-04-16T07:29:21.487Z,11.14
2018-04-16T07:31:47.815Z,11.14
2018-04-16T07:34:13.679Z,11.10
2018-04-16T07:36:39.648Z,11.06
2018-04-16T07:39:05.547Z,11.21
2018-04-16T07:41:31.418Z,11.14
2018-04-16T07:43:57.641Z,11.18
2018-04-16T07:46:23.590Z,11.27
2018-04-16T07:48:49.541Z,11.18
2018-04-16T07:51:15.489Z,11.29
2018-04-16T07:53:41.895Z,11.34
2018-04-16T07:56:07.772Z,11.25
2018-04-16T07:58:33.823Z,11.35
2018-04-16T08:00:59.811Z,11.38
2018-04-16T08:03:25.668Z,11.43
2018-04-16T08:05:51.534Z,11.58
2018-04-16T08:08:17.488Z,11.61
2018-04-16T08:10:43.370Z,11.51
2018-04-16T08:13:09.319Z,11.61
2018-04-16T08:15:35.231Z,11.66
2018-04-16T08:18:01.081Z,11.69
2018-04-16T08:20:26.948Z,11.73
2018-04-16T08:22:53.069Z,11.63
2018-04-16T08:25:19.031Z,11.74
2018-04-16T08:27:44.883Z,11.85
2018-04-16T08:30:10.791Z,11.81
2018-04-16T08:32:36.643Z,11.90
2018-04-16T08:35:02.520Z,11.89
2018-04-16T08:37:28.536Z,11.97
2018-04-16T08:39:54.406Z,11.97
2018-04-16T08:42:20.265Z,12.02
2018-04-16T08:44:46.544Z,12.18
2018-04-16T08:47:12.396Z,12.23
2018-04-16T08:49:38.360Z,12.36
2018-04-16T08:52:04.283Z,12.51
2018-04-16T08:54:30.157Z,12.54
2018-04-16T08:56:56.069Z,12.35
2018-04-16T08:59:21.999Z,12.40
2018-04-16T09:01:47.985Z,12.49
2018-04-16T09:04:13.859Z,12.73
2018-04-16T09:06:43.782Z,12.76
2018-04-16T09:09:09.648Z,12.95
2018-04-16T09:11:35.562Z,12.90
2018-04-16T09:14:01.563Z,12.95
2018-04-16T09:16:27.445Z,13.04
2018-04-16T09:18:53.304Z,13.04
2018-04-16T09:21:21.301Z,12.96
2018-04-16T09:23:47.170Z,13.07
2018-04-16T09:26:13.125Z,13.18
2018-04-16T09:28:40.120Z,13.35
2018-04-16T09:31:05.993Z,13.44
2018-04-16T09:33:31.929Z,13.42
2018-04-16T09:35:57.892Z,13.60
2018-04-16T09:38:23.869Z,13.67
2018-04-16T09:40:49.735Z,13.92
2018-04-16T09:43:15.636Z,13.74
2018-04-16T09:45:41.489Z,13.87
2018-04-16T09:48:07.430Z,13.89
2018-04-16T09:50:33.440Z,13.72
2018-04-16T09:52:59.288Z,13.83
2018-04-16T09:55:25.152Z,13.64
2018-04-16T09:57:51.051Z,13.65
2018-04-16T10:00:17.009Z,13.76
2018-04-16T10:02:49.868Z,13.67
2018-04-16T10:05:15.779Z,13.68
2018-04-16T10:07:41.635Z,13.75
2018-04-16T10:10:07.560Z,13.79
2018-04-16T10:12:33.466Z,13.84
2018-04-16T10:14:59.560Z,13.88
2018-04-16T10:17:25.429Z,13.92
2018-04-16T10:19:52.778Z,14.04
2018-04-16T10:22:18.644Z,14.19
2018-04-16T10:24:44.500Z,14.25
2018-04-16T10:27:10.515Z,14.43
2018-04-16T10:29:36.371Z,14.70
2018-04-16T10:32:02.235Z,14.68
2018-04-16T10:34:28.162Z,14.67
2018-04-16T10:36:54.047Z,14.80
2018-04-16T10:39:20.010Z,15.08
2018-04-16T10:41:46.775Z,15.20
2018-04-16T10:44:12.672Z,15.44
2018-04-16T10:46:38.548Z,15.46
2018-04-16T10:49:04.460Z,15.61
2018-04-16T10:51:30.424Z,15.87
2018-04-16T10:53:56.329Z,15.97
2018-04-16T10:56:22.308Z,16.10
2018-04-16T10:58:48.210Z,16.21
2018-04-16T11:01:14.092Z,16.48
2018-04-16T11:03:40.115Z,16.84
2018-04-16T11:06:05.992Z,17.22
2018-04-16T11:08:31.944Z,17.23
2018-04-16T11:10:57.871Z,17.43
2018-04-16T11:13:23.765Z,17.39
2018-04-16T11:15:49.834Z,17.19
2018-04-16T11:18:15.762Z,17.00
2018-04-16T11:20:41.644Z,17.21
2018-04-16T11:23:07.520Z,17.17
2018-04-16T11:25:33.448Z,17.03
2018-04-16T11:27:59.426Z,17.26
2018-04-16T11:30:26.381Z,17.39
2018-04-16T11:32:52.820Z,17.86
2018-04-16T11:35:18.672Z,17.97
2018-04-16T11:37:44.565Z,18.10
2018-04-16T11:40:10.585Z,18.38
2018-04-16T11:42:36.481Z,18.22
2018-04-16T11:45:02.364Z,18.28
2018-04-16T11:47:28.292Z,18.33
2018-04-16T11:49:54.152Z,18.43
2018-04-16T11:52:20.957Z,18.38
2018-04-16T11:54:46.871Z,18.28
2018-04-16T11:57:12.738Z,18.30
2018-04-16T11:59:38.624Z,18.63
2018-04-16T12:02:04.560Z,18.77
2018-04-16T12:04:30.608Z,18.82
2018-04-16T12:06:56.483Z,18.86
2018-04-16T12:09:22.388Z,18.73
2018-04-16T12:11:48.247Z,18.65
2018-04-16T12:14:14.135Z,18.58
2018-04-16T12:16:40.149Z,18.79
2018-04-16T12:19:06.048Z,19.05
2018-04-16T12:21:31.982Z,18.97
2018-04-16T12:23:57.903Z,18.70
2018-04-16T12:26:23.773Z,18.80
2018-04-16T12:28:49.780Z,18.97
2018-04-16T12:31:15.692Z,19.00
2018-04-16T12:33:41.549Z,18.85
2018-04-16T12:36:07.429Z,18.69
2018-04-16T12:38:33.330Z,18.72
2018-04-16T12:40:59.322Z,18.88
2018-04-16T12:43:25.203Z,18.67
2018-04-16T12:45:51.128Z,18.63
2018-04-16T12:48:16.995Z,18.55
2018-04-16T12:50:42.855Z,18.36
2018-04-16T12:53:08.880Z,18.27
2018-04-16T12:55:35.694Z,18.21
2018-04-16T12:58:01.572Z,18.15
2018-04-16T13:00:27.508Z,18.08
2018-04-16T13:02:53.392Z,17.89
2018-04-16T13:05:19.360Z,18.13
2018-04-16T13:07:45.307Z,18.36
2018-04-16T13:10:11.214Z,18.31
2018-04-16T13:12:37.156Z,18.22
2018-04-16T13:15:03.115Z,18.19
2018-04-16T13:17:29.229Z,18.26
2018-04-16T13:19:55.144Z,18.08
2018-04-16T13:22:21.047Z,17.92
2018-04-16T13:24:46.915Z,17.85
2018-04-16T13:27:12.777Z,17.81
2018-04-16T13:29:38.828Z,17.74
2018-04-16T13:32:04.729Z,17.72
2018-04-16T13:34:30.595Z,17.85
2018-04-16T13:36:56.506Z,17.76
2018-04-16T13:39:22.382Z,17.71
2018-04-16T13:41:48.340Z,17.39
2018-04-16T13:44:14.275Z,17.23
2018-04-16T13:46:40.140Z,17.25
2018-04-16T13:49:07.466Z,17.13
2018-04-16T13:51:33.380Z,17.08
2018-04-16T13:53:59.415Z,16.90
2018-04-16T13:56:25.295Z,16.70
2018-04-16T13:58:51.200Z,16.52
2018-04-16T14:01:17.072Z,16.31
2018-04-16T14:03:42.947Z,16.12
2018-04-16T14:06:09.011Z,15.89
2018-04-16T14:08:34.870Z,15.71
2018-04-16T14:11:00.749Z,15.68
2018-04-16T14:13:26.688Z,15.53
2018-04-16T14:15:52.566Z,15.51
2018-04-16T14:18:18.500Z,15.50
2018-04-16T14:20:44.419Z,15.45
2018-04-16T14:23:10.293Z,15.39
2018-04-16T14:25:36.172Z,15.27
2018-04-16T14:28:02.100Z,15.24
2018-04-16T14:30:28.085Z,15.13
2018-04-16T14:32:53.947Z,14.97
2018-04-16T14:35:19.867Z,15.04
2018-04-16T14:37:45.727Z,14.85
2018-04-16T14:40:11.695Z,14.72
2018-04-16T14:42:37.699Z,14.65
2018-04-16T14:45:03.581Z,14.53
2018-04-16T14:47:29.491Z,14.49
2018-04-16T14:49:55.688Z,14.47
2018-04-16T14:52:21.560Z,14.46
2018-04-16T14:54:47.551Z,14.42
2018-04-16T14:57:13.473Z,14.41
2018-04-16T14:59:39.340Z,14.40
2018-04-16T15:02:05.214Z,14.40
2018-04-16T15:04:31.131Z,14.33
2018-04-16T15:06:57.116Z,14.37
2018-04-16T15:09:23.029Z,14.35
2018-04-16T15:11:48.953Z,14.32
2018-04-16T15:14:14.823Z,14.22
2018-04-16T15:16:40.693Z,14.24
2018-04-16T15:19:06.703Z,14.21
2018-04-16T15:21:32.577Z,14.15
2018-04-16T15:23:59.515Z,14.12
2018-04-16T15:26:25.419Z,14.10
2018-04-16T15:28:51.563Z,14.13
2018-04-16T15:31:17.599Z,14.11
2018-04-16T15:33:43.492Z,14.13
2018-04-16T15:36:09.378Z,14.14
2018-04-16T15:38:35.237Z,14.08
2018-04-16T15:41:01.143Z,14.12
2018-04-16T15:43:27.095Z,14.12
2018-04-16T15:45:53.040Z,14.11
2018-04-16T15:48:18.967Z,14.14
2018-04-16T15:50:44.836Z,14.11
2018-04-16T15:53:10.703Z,14.05
2018-04-16T15:55:37.059Z,14.05
2018-04-16T15:58:03.018Z,14.08
2018-04-16T16:00:28.882Z,14.07
2018-04-16T16:02:54.775Z,14.05
2018-04-16T16:05:20.653Z,14.02
2018-04-16T16:07:46.627Z,14.02
2018-04-16T16:10:12.606Z,14.04
2018-04-16T16:12:39.026Z,14.10
2018-04-16T16:15:04.976Z,14.12
2018-04-16T16:17:30.886Z,14.06
2018-04-16T16:19:56.839Z,14.01
2018-04-16T16:22:22.765Z,14.05
2018-04-16T16:24:48.683Z,14.09
2018-04-16T16:27:14.701Z,14.14
2018-04-16T16:29:40.619Z,14.12
2018-04-16T16:32:06.629Z,14.04
2018-04-16T16:34:32.550Z,14.15
2018-04-16T16:36:58.428Z,14.19
2018-04-16T16:39:24.340Z,14.18
2018-04-16T16:41:50.273Z,14.18
2018-04-16T16:44:16.591Z,14.25
2018-04-16T16:46:42.541Z,14.20
2018-04-16T16:49:08.412Z,14.15
2018-04-16T16:51:34.289Z,14.16
2018-04-16T16:54:00.285Z,14.14
2018-04-16T16:56:26.199Z,14.18
2018-04-16T16:58:52.132Z,14.13
2018-04-16T17:01:18.290Z,14.14
2018-04-16T17:03:44.165Z,14.13
2018-04-16T17:06:10.056Z,14.14
2018-04-16T17:08:36.068Z,14.11
2018-04-16T17:11:01.991Z,14.13
2018-04-16T17:13:27.852Z,14.11
2018-04-16T17:15:53.759Z,14.08
2018-04-16T17:18:19.616Z,14.08
2018-04-16T17:20:45.636Z,14.07
2018-04-16T17:23:11.555Z,14.05
2018-04-16T17:25:37.439Z,14.04
2018-04-16T17:28:03.345Z,14.07
2018-04-16T17:30:29.472Z,14.04
2018-04-16T17:32:55.466Z,14.00
2018-04-16T17:35:21.334Z,14.04
2018-04-16T17:37:47.261Z,13.95
2018-04-16T17:40:13.123Z,13.90
2018-04-16T17:42:38.995Z,13.89
2018-04-16T17:45:05.400Z,13.90
2018-04-16T17:47:31.264Z,13.87
2018-04-16T17:49:57.127Z,13.86
2018-04-16T17:52:23.058Z,13.88
2018-04-16T17:54:48.936Z,13.81
2018-04-16T17:57:14.887Z,13.82
2018-04-16T17:59:40.805Z,13.76
2018-04-16T18:02:06.684Z,13.77
2018-04-16T18:04:32.609Z,13.75
2018-04-16T18:06:58.512Z,13.75
2018-04-16T18:09:24.503Z,13.71
2018-04-16T18:11:50.360Z,13.76
2018-04-16T18:14:16.303Z,13.71
2018-04-16T18:16:42.176Z,13.69
2018-04-16T18:19:08.057Z,13.69
2018-04-16T18:21:34.067Z,13.70
2018-04-16T18:23:59.980Z,13.75
2018-04-16T18:26:25.862Z,13.69
2018-04-16T18:28:51.776Z,13.65
2018-04-16T18:31:17.637Z,13.64
2018-04-16T18:33:43.619Z,13.63
2018-04-16T18:36:09.557Z,13.62
2018-04-16T18:38:35.496Z,13.60
2018-04-16T18:41:01.435Z,13.55
2018-04-16T18:43:27.359Z,13.51
2018-04-16T18:45:53.349Z,13.54
2018-04-16T18:48:19.232Z,13.55
2018-04-16T18:50:45.150Z,13.52
2018-04-16T18:53:11.032Z,13.53
2018-04-16T18:55:36.895Z,13.50
2018-04-16T18:58:02.832Z,13.51
2018-04-16T19:00:28.751Z,13.47
2018-04-16T19:02:54.641Z,13.42
2018-04-16T19:05:20.566Z,13.41
2018-04-16T19:07:46.460Z,13.39
2018-04-16T19:10:12.357Z,13.34
2018-04-16T19:12:38.292Z,13.32
2018-04-16T19:15:04.271Z,13.28
2018-04-16T19:17:30.160Z,13.25
2018-04-16T19:19:56.072Z,13.23
2018-04-16T19:22:22.031Z,13.20
2018-04-16T19:24:47.911Z,13.20
2018-04-16T19:27:20.678Z,13.18
2018-04-16T19:29:46.565Z,13.19
2018-04-16T19:32:12.441Z,13.19
2018-04-16T19:34:44.449Z,13.14
2018-04-16T19:37:10.329Z,13.10
2018-04-16T19:39:36.217Z,13.09
2018-04-16T19:42:08.324Z,13.07
2018-04-16T19:44:34.198Z,13.06
2018-04-16T19:47:00.828Z,13.07
2018-04-16T19:49:32.852Z,13.09
2018-04-16T19:51:58.720Z,13.04
2018-04-16T19:54:24.989Z,13.00
2018-04-16T19:56:56.956Z,12.98
2018-04-16T19:59:23.390Z,12.94
2018-04-16T20:01:55.545Z,12.91
2018-04-16T20:04:21.640Z,12.88
2018-04-16T20:06:47.506Z,12.93
2018-04-16T20:09:13.389Z,13.01
2018-04-16T20:11:39.478Z,12.97
2018-04-16T20:14:05.648Z,12.97
2018-04-16T20:16:31.520Z,12.97
2018-04-16T20:18:58.660Z,13.03
2018-04-16T20:21:24.581Z,13.05
2018-04-16T20:23:50.568Z,13.06
2018-04-16T20:26:16.498Z,13.14
2018-04-16T20:28:42.379Z,13.13
2018-04-16T20:31:08.666Z,13.15
2018-04-16T20:33:34.563Z,13.06
2018-04-16T20:36:01.118Z,13.06
2018-04-16T20:38:26.996Z,13.08
2018-04-16T20:40:52.971Z,13.12
2018-04-16T20:43:18.826Z,13.08
2018-04-16T20:45:44.704Z,13.03
2018-04-16T20:48:10.711Z,13.09
2018-04-16T20:50:36.589Z,13.01
2018-04-16T20:53:02.444Z,12.99
2018-04-16T20:55:28.378Z,12.98
2018-04-16T20:57:54.274Z,12.97
2018-04-16T21:00:21.065Z,12.90
2018-04-16T21:02:46.985Z,12.91
2018-04-16T21:05:12.855Z,12.81
2018-04-16T21:07:38.748Z,12.84
2018-04-16T21:10:04.687Z,12.77
2018-04-16T21:12:30.760Z,12.76
2018-04-16T21:14:56.628Z,12.78
2018-04-16T21:17:22.640Z,12.69
2018-04-16T21:19:48.508Z,12.68
2018-04-16T21:22:14.426Z,12.62
2018-04-16T21:24:40.448Z,12.58
2018-04-16T21:27:06.348Z,12.52
2018-04-16T21:29:32.224Z,12.47
2018-04-16T21:31:58.570Z,12.43
2018-04-16T21:34:24.859Z,12.31
2018-04-16T21:36:51.195Z,12.29
2018-04-16T21:39:17.144Z,12.28
2018-04-16T21:41:43.119Z,12.22
2018-04-16T21:44:09.389Z,12.27
2018-04-16T21:46:35.628Z,12.18
2018-04-16T21:49:01.906Z,12.14
2018-04-16T21:51:28.245Z,12.04
2018-04-16T21:53:54.316Z,11.96
2018-04-16T21:56:20.765Z,11.90
2018-04-16T21:58:46.754Z,11.83
2018-04-16T22:01:13.371Z,11.91
2018-04-16T22:03:39.376Z,11.85
2018-04-16T22:06:05.388Z,11.77
2018-04-16T22:08:31.756Z,11.66
2018-04-16T22:10:58.193Z,11.57
2018-04-16T22:13:24.183Z,11.51
2018-04-16T22:15:50.183Z,11.42
2018-04-16T22:18:16.196Z,11.37
2018-04-16T22:20:42.220Z,11.34
2018-04-16T22:23:08.719Z,11.31
2018-04-16T22:25:35.099Z,11.25
2018-04-16T22:28:00.992Z,11.16
2018-04-16T22:30:26.920Z,11.07
2018-04-16T22:32:52.893Z,11.11
2018-04-16T22:35:18.766Z,11.07
2018-04-16T22:37:45.160Z,11.02
2018-04-16T22:40:11.049Z,10.97
2018-04-16T22:42:37.026Z,10.99
2018-04-16T22:45:02.959Z,11.10
2018-04-16T22:47:28.857Z,11.06
2018-04-16T22:49:54.812Z,11.00
2018-04-16T22:52:20.752Z,10.97
2018-04-16T22:54:46.700Z,10.93
2018-04-16T22:57:12.571Z,10.88
2018-04-16T22:59:38.495Z,10.86
2018-04-16T23:02:04.482Z,10.79
2018-04-16T23:04:30.384Z,10.71
2018-04-16T23:06:56.624Z,10.81
2018-04-16T23:09:22.575Z,10.81
2018-04-16T23:11:48.480Z,10.77
2018-04-16T23:14:14.484Z,10.70
2018-04-16T23:16:41.233Z,10.63
2018-04-16T23:19:07.117Z,10.58
2018-04-16T23:21:33.035Z,10.60
2018-04-16T23:23:59.011Z,10.56
2018-04-16T23:26:25.011Z,10.47
2018-04-16T23:28:50.911Z,10.46
2018-04-16T23:31:17.671Z,10.45
2018-04-16T23:33:43.564Z,10.44
2018-04-16T23:36:09.587Z,10.42
2018-04-16T23:38:36.307Z,10.60
2018-04-16T23:41:02.195Z,10.72
2018-04-16T23:43:28.156Z,10.72
2018-04-16T23:45:54.053Z,10.75
2018-04-16T23:48:19.936Z,10.83
2018-04-16T23:50:45.972Z,10.81
2018-04-16T23:53:11.843Z,10.83
2018-04-16T23:55:37.769Z,10.87
2018-04-16T23:58:03.692Z,10.96
